createdAt,value
2017-07-29T00:00:01.290Z,99.99
2017-07-29T00:00:14.771Z,99.99
2017-07-29T00:00:28.879Z,99.99
2017-07-29T00:00:42.279Z,99.99
2017-07-29T00:00:55.784Z,99.99
2017-07-29T00:01:09.245Z,99.99
2017-07-29T00:01:22.623Z,99.99
2017-07-29T00:01:35.595Z,99.99
2017-07-29T00:01:48.555Z,99.99
2017-07-29T00:02:01.470Z,99.99
2017-07-29T00:02:14.933Z,99.99
2017-07-29T00:02:28.411Z,99.99
2017-07-29T00:02:41.902Z,99.99
2017-07-29T00:02:55.337Z,99.99
2017-07-29T00:03:08.282Z,99.99
2017-07-29T00:03:21.761Z,99.99
2017-07-29T00:03:34.630Z,99.99
2017-07-29T00:03:48.273Z,99.99
2017-07-29T00:04:01.197Z,99.99
2017-07-29T00:04:14.108Z,99.99
2017-07-29T00:04:27.042Z,99.99
2017-07-29T00:04:40.008Z,99.99
2017-07-29T00:04:53.407Z,99.99
2017-07-29T00:05:06.857Z,99.99
2017-07-29T00:05:20.293Z,99.99
2017-07-29T00:05:33.714Z,99.99
2017-07-29T00:05:46.768Z,99.99
2017-07-29T00:06:00.226Z,99.99
2017-07-29T00:06:13.153Z,99.99
2017-07-29T00:06:26.552Z,99.99
2017-07-29T00:06:40.069Z,99.99
2017-07-29T00:06:53.609Z,99.99
2017-07-29T00:07:07.102Z,99.99
2017-07-29T00:07:20.626Z,99.99
2017-07-29T00:07:34.046Z,99.99
2017-07-29T00:07:47.511Z,99.99
2017-07-29T00:08:00.936Z,99.99
2017-07-29T00:08:13.853Z,99.99
2017-07-29T00:08:27.344Z,99.99
2017-07-29T00:08:40.806Z,99.99
2017-07-29T00:08:53.727Z,99.99
2017-07-29T00:09:05.560Z,99.99
2017-07-29T00:09:19.025Z,99.99
2017-07-29T00:09:32.485Z,99.99
2017-07-29T00:09:46.054Z,99.99
2017-07-29T00:09:58.974Z,99.99
2017-07-29T00:10:11.996Z,99.99
2017-07-29T00:10:25.494Z,99.99
2017-07-29T00:10:39.087Z,99.99
2017-07-29T00:10:52.536Z,99.99
2017-07-29T00:11:05.493Z,99.99
2017-07-29T00:11:18.948Z,99.99
2017-07-29T00:11:32.372Z,99.99
2017-07-29T00:11:45.849Z,99.99
2017-07-29T00:11:59.295Z,99.99
2017-07-29T00:12:12.769Z,99.99
2017-07-29T00:12:26.197Z,99.99
2017-07-29T00:12:39.654Z,99.99
2017-07-29T00:12:52.605Z,99.99
2017-07-29T00:13:06.095Z,99.99
2017-07-29T00:13:19.570Z,99.99
2017-07-29T00:13:33.022Z,99.99
2017-07-29T00:13:45.905Z,99.99
2017-07-29T00:13:58.859Z,99.99
2017-07-29T00:14:12.349Z,99.99
2017-07-29T00:14:25.772Z,99.99
2017-07-29T00:14:38.674Z,99.99
2017-07-29T00:14:52.141Z,99.99
2017-07-29T00:15:05.048Z,99.99
2017-07-29T00:15:17.957Z,99.99
2017-07-29T00:15:31.674Z,99.99
2017-07-29T00:15:45.215Z,99.99
2017-07-29T00:15:58.653Z,99.99
2017-07-29T00:16:12.082Z,99.99
2017-07-29T00:16:25.503Z,99.99
2017-07-29T00:16:37.870Z,99.99
2017-07-29T00:16:50.896Z,99.99
2017-07-29T00:17:04.390Z,99.99
2017-07-29T00:17:17.364Z,99.99
2017-07-29T00:17:30.758Z,99.99
2017-07-29T00:17:44.262Z,99.99
2017-07-29T00:17:57.766Z,99.99
2017-07-29T00:18:11.257Z,99.99
2017-07-29T00:18:24.712Z,99.99
2017-07-29T00:18:38.153Z,99.99
2017-07-29T00:18:51.100Z,99.99
2017-07-29T00:19:04.546Z,99.99
2017-07-29T00:19:17.970Z,99.99
2017-07-29T00:19:31.454Z,99.99
2017-07-29T00:19:44.431Z,99.99
2017-07-29T00:19:57.851Z,99.99
2017-07-29T00:20:11.333Z,99.99
2017-07-29T00:20:24.766Z,99.99
2017-07-29T00:20:37.715Z,99.99
2017-07-29T00:20:51.134Z,99.99
2017-07-29T00:21:04.634Z,99.99
2017-07-29T00:21:18.095Z,99.99
2017-07-29T00:21:30.995Z,99.99
2017-07-29T00:21:43.360Z,99.99
2017-07-29T00:21:56.261Z,99.99
2017-07-29T00:22:09.154Z,99.99
2017-07-29T00:22:22.626Z,99.99
2017-07-29T00:22:35.544Z,99.99
2017-07-29T00:22:49.054Z,99.99
2017-07-29T00:23:02.005Z,99.99
2017-07-29T00:23:14.913Z,99.99
2017-07-29T00:23:28.312Z,99.99
2017-07-29T00:23:41.722Z,99.99
2017-07-29T00:23:55.261Z,99.99
2017-07-29T00:24:08.753Z,99.99
2017-07-29T00:24:21.680Z,99.99
2017-07-29T00:24:34.596Z,99.99
2017-07-29T00:24:47.983Z,99.99
2017-07-29T00:25:01.429Z,99.99
2017-07-29T00:25:14.330Z,99.99
2017-07-29T00:25:27.824Z,99.99
2017-07-29T00:25:41.330Z,99.99
2017-07-29T00:25:54.821Z,99.99
2017-07-29T00:26:08.342Z,99.99
2017-07-29T00:26:21.837Z,99.99
2017-07-29T00:26:35.297Z,99.99
2017-07-29T00:26:48.718Z,99.99
2017-07-29T00:27:02.238Z,99.99
2017-07-29T00:27:15.705Z,99.99
2017-07-29T00:27:29.230Z,99.99
2017-07-29T00:27:42.603Z,99.99
2017-07-29T00:27:55.499Z,99.99
2017-07-29T00:28:08.499Z,99.99
2017-07-29T00:28:21.428Z,99.99
2017-07-29T00:28:34.854Z,99.99
2017-07-29T00:28:47.804Z,99.99
2017-07-29T00:29:01.214Z,99.99
2017-07-29T00:29:14.695Z,99.99
2017-07-29T00:29:28.127Z,99.99
2017-07-29T00:29:41.598Z,99.99
2017-07-29T00:29:54.556Z,99.99
2017-07-29T00:30:08.095Z,99.99
2017-07-29T00:30:21.517Z,99.99
2017-07-29T00:30:34.987Z,99.99
2017-07-29T00:30:48.925Z,99.99
2017-07-29T00:31:02.479Z,99.99
2017-07-29T00:31:15.982Z,99.99
2017-07-29T00:31:28.937Z,99.99
2017-07-29T00:31:41.893Z,99.99
2017-07-29T00:31:54.822Z,99.99
2017-07-29T00:32:07.213Z,99.99
2017-07-29T00:32:20.622Z,99.99
2017-07-29T00:32:34.041Z,99.99
2017-07-29T00:32:46.989Z,99.99
2017-07-29T00:32:59.945Z,99.99
2017-07-29T00:33:12.906Z,99.99
2017-07-29T00:33:25.858Z,99.99
2017-07-29T00:33:39.294Z,99.99
2017-07-29T00:33:52.729Z,99.99
2017-07-29T00:34:06.193Z,99.99
2017-07-29T00:34:19.090Z,99.99
2017-07-29T00:34:32.538Z,99.99
2017-07-29T00:34:46.001Z,99.99
2017-07-29T00:34:58.941Z,99.99
2017-07-29T00:35:11.898Z,99.99
2017-07-29T00:35:24.862Z,99.99
2017-07-29T00:35:38.386Z,99.99
2017-07-29T00:35:51.808Z,99.99
2017-07-29T00:36:04.726Z,99.99
2017-07-29T00:36:18.210Z,99.99
2017-07-29T00:36:31.659Z,99.99
2017-07-29T00:36:45.060Z,99.99
2017-07-29T00:36:58.521Z,99.99
2017-07-29T00:37:11.475Z,99.99
2017-07-29T00:37:24.967Z,99.99
2017-07-29T00:37:37.944Z,99.99
2017-07-29T00:37:51.363Z,99.99
2017-07-29T00:38:04.349Z,99.99
2017-07-29T00:38:17.863Z,99.99
2017-07-29T00:38:31.313Z,99.99
2017-07-29T00:38:44.763Z,99.99
2017-07-29T00:38:58.323Z,99.99
2017-07-29T00:39:11.841Z,99.99
2017-07-29T00:39:25.310Z,99.99
2017-07-29T00:39:38.781Z,99.99
2017-07-29T00:39:52.189Z,99.99
2017-07-29T00:40:05.093Z,99.99
2017-07-29T00:40:18.062Z,99.99
2017-07-29T00:40:31.504Z,99.99
2017-07-29T00:40:44.889Z,99.99
2017-07-29T00:40:57.766Z,99.99
2017-07-29T00:41:11.142Z,99.99
2017-07-29T00:41:24.582Z,99.99
2017-07-29T00:41:37.610Z,99.99
2017-07-29T00:41:51.076Z,99.99
2017-07-29T00:42:04.006Z,99.99
2017-07-29T00:42:17.409Z,99.99
2017-07-29T00:42:30.295Z,99.99
2017-07-29T00:42:43.223Z,99.99
2017-07-29T00:42:56.663Z,99.99
2017-07-29T00:43:09.686Z,99.99
2017-07-29T00:43:23.156Z,99.99
2017-07-29T00:43:36.000Z,99.99
2017-07-29T00:43:49.427Z,99.99
2017-07-29T00:44:02.829Z,99.99
2017-07-29T00:44:15.835Z,99.99
2017-07-29T00:44:29.260Z,99.99
2017-07-29T00:44:42.756Z,99.99
2017-07-29T00:44:56.227Z,99.99
2017-07-29T00:45:09.218Z,99.99
2017-07-29T00:45:22.662Z,99.99
2017-07-29T00:45:36.100Z,99.99
2017-07-29T00:45:49.616Z,99.99
2017-07-29T00:46:03.083Z,99.99
2017-07-29T00:46:16.546Z,99.99
2017-07-29T00:46:30.030Z,99.99
2017-07-29T00:46:43.497Z,99.99
2017-07-29T00:46:56.985Z,99.99
2017-07-29T00:47:10.442Z,99.99
2017-07-29T00:47:23.894Z,99.99
2017-07-29T00:47:36.277Z,99.99
2017-07-29T00:47:49.760Z,99.99
2017-07-29T00:48:02.744Z,99.99
2017-07-29T00:48:16.169Z,99.99
2017-07-29T00:48:29.096Z,99.99
2017-07-29T00:48:42.527Z,99.99
2017-07-29T00:48:56.036Z,99.99
2017-07-29T00:49:08.933Z,99.99
2017-07-29T00:49:21.840Z,99.99
2017-07-29T00:49:35.340Z,99.99
2017-07-29T00:49:48.845Z,99.99
2017-07-29T00:50:02.307Z,99.99
2017-07-29T00:50:15.719Z,99.99
2017-07-29T00:50:29.209Z,99.99
2017-07-29T00:50:42.611Z,99.99
2017-07-29T00:50:56.184Z,99.99
2017-07-29T00:51:09.083Z,99.99
2017-07-29T00:51:21.993Z,99.99
2017-07-29T00:51:34.957Z,99.99
2017-07-29T00:51:48.350Z,99.99
2017-07-29T00:52:01.804Z,99.99
2017-07-29T00:52:13.681Z,99.99
2017-07-29T00:52:27.183Z,99.99
2017-07-29T00:52:40.657Z,99.99
2017-07-29T00:52:54.115Z,99.99
2017-07-29T00:53:07.541Z,99.99
2017-07-29T00:53:20.955Z,99.99
2017-07-29T00:53:34.435Z,99.99
2017-07-29T00:53:47.876Z,99.99
2017-07-29T00:54:01.404Z,99.99
2017-07-29T00:54:14.874Z,99.99
2017-07-29T00:54:28.368Z,99.99
2017-07-29T00:54:41.808Z,99.99
2017-07-29T00:54:55.212Z,99.99
2017-07-29T00:55:08.145Z,99.99
2017-07-29T00:55:21.617Z,99.99
2017-07-29T00:55:35.006Z,99.99
2017-07-29T00:55:48.415Z,99.99
2017-07-29T00:56:01.851Z,99.99
2017-07-29T00:56:14.783Z,99.99
2017-07-29T00:56:28.198Z,99.99
2017-07-29T00:56:41.699Z,99.99
2017-07-29T00:56:55.100Z,99.99
2017-07-29T00:57:08.553Z,99.99
2017-07-29T00:57:21.998Z,99.99
2017-07-29T00:57:35.502Z,99.99
2017-07-29T00:57:49.009Z,99.99
2017-07-29T00:58:02.454Z,99.99
2017-07-29T00:58:15.906Z,99.99
2017-07-29T00:58:29.298Z,99.99
2017-07-29T00:58:42.241Z,99.99
2017-07-29T00:58:55.616Z,99.99
2017-07-29T00:59:08.585Z,99.99
2017-07-29T00:59:22.061Z,99.99
2017-07-29T00:59:35.536Z,99.99
2017-07-29T00:59:48.482Z,99.99
2017-07-29T01:00:01.352Z,99.99
2017-07-29T01:00:14.854Z,99.99
2017-07-29T01:00:28.273Z,99.99
2017-07-29T01:00:41.726Z,99.99
2017-07-29T01:00:55.387Z,99.99
2017-07-29T01:01:08.333Z,99.99
2017-07-29T01:01:21.779Z,99.99
2017-07-29T01:01:34.753Z,99.99
2017-07-29T01:01:48.213Z,99.99
2017-07-29T01:02:01.620Z,99.99
2017-07-29T01:02:14.533Z,99.99
2017-07-29T01:02:27.550Z,99.99
2017-07-29T01:02:41.014Z,99.99
2017-07-29T01:02:54.446Z,99.99
2017-07-29T01:03:07.373Z,99.99
2017-07-29T01:03:20.343Z,99.99
2017-07-29T01:03:33.760Z,99.99
2017-07-29T01:03:47.247Z,99.99
2017-07-29T01:04:00.173Z,99.99
2017-07-29T01:04:13.596Z,99.99
2017-07-29T01:04:27.066Z,99.99
2017-07-29T01:04:40.479Z,99.99
2017-07-29T01:04:52.828Z,99.99
2017-07-29T01:05:06.332Z,99.99
2017-07-29T01:05:19.795Z,99.99
2017-07-29T01:05:32.803Z,99.99
2017-07-29T01:05:46.339Z,99.99
2017-07-29T01:05:59.271Z,99.99
2017-07-29T01:06:12.703Z,99.99
2017-07-29T01:06:26.150Z,99.99
2017-07-29T01:06:39.577Z,99.99
2017-07-29T01:06:52.496Z,99.99
2017-07-29T01:07:05.907Z,99.99
2017-07-29T01:07:18.851Z,99.99
2017-07-29T01:07:32.306Z,99.99
2017-07-29T01:07:45.269Z,99.99
2017-07-29T01:07:58.192Z,99.99
2017-07-29T01:08:10.598Z,99.99
2017-07-29T01:08:23.977Z,99.99
2017-07-29T01:08:37.414Z,99.99
2017-07-29T01:08:50.286Z,99.99
2017-07-29T01:09:03.232Z,99.99
2017-07-29T01:09:16.699Z,99.99
2017-07-29T01:09:30.179Z,99.99
2017-07-29T01:09:43.670Z,99.99
2017-07-29T01:09:57.068Z,99.99
2017-07-29T01:10:10.022Z,99.99
2017-07-29T01:10:23.486Z,99.99
2017-07-29T01:10:36.944Z,99.99
2017-07-29T01:10:50.486Z,99.99
2017-07-29T01:11:03.394Z,99.99
2017-07-29T01:11:16.903Z,99.99
2017-07-29T01:11:30.380Z,99.99
2017-07-29T01:11:43.915Z,99.99
2017-07-29T01:11:56.830Z,99.99
2017-07-29T01:12:09.773Z,99.99
2017-07-29T01:12:22.693Z,99.99
2017-07-29T01:12:35.602Z,99.99
2017-07-29T01:12:49.015Z,99.99
2017-07-29T01:13:02.515Z,99.99
2017-07-29T01:13:16.004Z,99.99
2017-07-29T01:13:29.452Z,99.99
2017-07-29T01:13:42.921Z,99.99
2017-07-29T01:13:56.402Z,99.99
2017-07-29T01:14:09.343Z,99.99
2017-07-29T01:14:22.824Z,99.99
2017-07-29T01:14:36.311Z,99.99
2017-07-29T01:14:49.723Z,99.99
2017-07-29T01:15:03.153Z,99.99
2017-07-29T01:15:16.097Z,99.99
2017-07-29T01:15:29.545Z,99.99
2017-07-29T01:15:42.473Z,99.99
2017-07-29T01:15:55.411Z,99.99
2017-07-29T01:16:09.114Z,99.99
2017-07-29T01:16:22.096Z,99.99
2017-07-29T01:16:35.020Z,99.99
2017-07-29T01:16:47.984Z,99.99
2017-07-29T01:17:00.880Z,99.99
2017-07-29T01:17:13.865Z,99.99
2017-07-29T01:17:27.368Z,99.99
2017-07-29T01:17:40.872Z,99.99
2017-07-29T01:17:53.831Z,99.99
2017-07-29T01:18:07.278Z,99.99
2017-07-29T01:18:19.745Z,99.99
2017-07-29T01:18:33.252Z,99.99
2017-07-29T01:18:46.157Z,99.99
2017-07-29T01:18:59.629Z,99.99
2017-07-29T01:19:14.468Z,99.99
2017-07-29T01:19:27.874Z,99.99
2017-07-29T01:19:41.301Z,99.99
2017-07-29T01:19:54.766Z,99.99
2017-07-29T01:20:08.275Z,99.99
2017-07-29T01:20:21.773Z,99.99
2017-07-29T01:20:36.651Z,99.99
2017-07-29T01:20:50.079Z,99.99
2017-07-29T01:21:02.494Z,99.99
2017-07-29T01:21:15.954Z,99.99
2017-07-29T01:21:28.874Z,99.99
2017-07-29T01:21:42.339Z,99.99
2017-07-29T01:21:55.763Z,99.99
2017-07-29T01:22:08.187Z,99.99
2017-07-29T01:22:21.773Z,99.99
2017-07-29T01:22:35.237Z,99.99
2017-07-29T01:22:48.191Z,99.99
2017-07-29T01:23:01.603Z,99.99
2017-07-29T01:23:15.096Z,99.99
2017-07-29T01:23:28.528Z,99.99
2017-07-29T01:23:42.029Z,99.99
2017-07-29T01:23:55.488Z,99.99
2017-07-29T01:24:08.940Z,99.99
2017-07-29T01:24:22.470Z,99.99
2017-07-29T01:24:35.971Z,99.99
2017-07-29T01:24:49.409Z,99.99
2017-07-29T01:25:02.818Z,99.99
2017-07-29T01:25:16.238Z,99.99
2017-07-29T01:25:29.716Z,99.99
2017-07-29T01:25:43.209Z,99.99
2017-07-29T01:25:56.725Z,99.99
2017-07-29T01:26:09.674Z,99.99
2017-07-29T01:26:23.082Z,99.99
2017-07-29T01:26:36.536Z,99.99
2017-07-29T01:26:49.987Z,99.99
2017-07-29T01:27:03.417Z,99.99
2017-07-29T01:27:15.872Z,99.99
2017-07-29T01:27:29.296Z,99.99
2017-07-29T01:27:42.725Z,99.99
2017-07-29T01:27:56.162Z,99.99
2017-07-29T01:28:09.088Z,99.99
2017-07-29T01:28:22.746Z,99.99
2017-07-29T01:28:36.172Z,99.99
2017-07-29T01:28:49.632Z,99.99
2017-07-29T01:29:02.520Z,99.99
2017-07-29T01:29:15.500Z,99.99
2017-07-29T01:29:29.020Z,99.99
2017-07-29T01:29:42.518Z,99.99
2017-07-29T01:29:55.506Z,99.99
2017-07-29T01:30:08.917Z,99.99
2017-07-29T01:30:22.387Z,99.99
2017-07-29T01:30:35.908Z,99.99
2017-07-29T01:30:49.315Z,99.99
2017-07-29T01:31:02.248Z,99.99
2017-07-29T01:31:16.355Z,99.99
2017-07-29T01:31:29.823Z,99.99
2017-07-29T01:31:43.273Z,99.99
2017-07-29T01:31:56.234Z,99.99
2017-07-29T01:32:09.691Z,99.99
2017-07-29T01:32:23.124Z,99.99
2017-07-29T01:32:35.512Z,99.99
2017-07-29T01:32:48.462Z,99.99
2017-07-29T01:33:01.908Z,99.99
2017-07-29T01:33:15.350Z,99.99
2017-07-29T01:33:28.264Z,99.99
2017-07-29T01:33:41.680Z,99.99
2017-07-29T01:33:54.613Z,99.99
2017-07-29T01:34:08.087Z,99.99
2017-07-29T01:34:21.082Z,99.99
2017-07-29T01:34:34.475Z,99.99
2017-07-29T01:34:47.986Z,99.99
2017-07-29T01:35:01.441Z,99.99
2017-07-29T01:35:14.895Z,99.99
2017-07-29T01:35:28.299Z,99.99
2017-07-29T01:35:41.770Z,99.99
2017-07-29T01:35:55.210Z,99.99
2017-07-29T01:36:08.141Z,99.99
2017-07-29T01:36:21.565Z,99.99
2017-07-29T01:36:35.076Z,99.99
2017-07-29T01:36:48.495Z,99.99
2017-07-29T01:37:01.956Z,99.99
2017-07-29T01:37:15.431Z,99.99
2017-07-29T01:37:28.391Z,99.99
2017-07-29T01:37:41.902Z,99.99
2017-07-29T01:37:55.391Z,99.99
2017-07-29T01:38:08.294Z,99.99
2017-07-29T01:38:20.190Z,99.99
2017-07-29T01:38:33.666Z,99.99
2017-07-29T01:38:47.157Z,99.99
2017-07-29T01:39:00.090Z,99.66
2017-07-29T01:39:12.604Z,99.99
2017-07-29T01:39:25.468Z,99.76
2017-07-29T01:39:38.945Z,99.38
2017-07-29T01:39:52.363Z,99.57
2017-07-29T01:40:05.846Z,99.43
2017-07-29T01:40:18.797Z,99.8
2017-07-29T01:40:31.710Z,99.09
2017-07-29T01:40:45.089Z,99.28
2017-07-29T01:40:58.605Z,99.28
2017-07-29T01:41:12.689Z,99.28
2017-07-29T01:41:26.193Z,99.28
2017-07-29T01:41:39.649Z,99.19
2017-07-29T01:41:52.621Z,99.23
2017-07-29T01:42:06.005Z,99.38
2017-07-29T01:42:18.953Z,98.66
2017-07-29T01:42:32.460Z,99.23
2017-07-29T01:42:45.886Z,98.94
2017-07-29T01:42:59.448Z,98.94
2017-07-29T01:43:12.972Z,98.85
2017-07-29T01:43:26.412Z,98.94
2017-07-29T01:43:40.061Z,98.85
2017-07-29T01:43:53.519Z,98.85
2017-07-29T01:44:07.070Z,98.94
2017-07-29T01:44:20.012Z,98.66
2017-07-29T01:44:33.481Z,98.75
2017-07-29T01:44:46.960Z,98.94
2017-07-29T01:44:59.918Z,98.94
2017-07-29T01:45:13.388Z,98.8
2017-07-29T01:45:26.334Z,99.04
2017-07-29T01:45:39.246Z,98.94
2017-07-29T01:45:52.168Z,98.85
2017-07-29T01:46:05.710Z,98.94
2017-07-29T01:46:19.910Z,98.75
2017-07-29T01:46:33.369Z,98.94
2017-07-29T01:46:46.780Z,99.14
2017-07-29T01:47:00.141Z,98.75
2017-07-29T01:47:13.579Z,98.94
2017-07-29T01:47:27.087Z,99.04
2017-07-29T01:47:40.548Z,98.94
2017-07-29T01:47:52.930Z,98.94
2017-07-29T01:48:06.425Z,99.04
2017-07-29T01:48:19.858Z,98.85
2017-07-29T01:48:33.392Z,98.85
2017-07-29T01:48:46.842Z,98.75
2017-07-29T01:48:59.795Z,98.85
2017-07-29T01:49:13.204Z,98.94
2017-07-29T01:49:26.663Z,98.66
2017-07-29T01:49:40.075Z,98.94
2017-07-29T01:49:53.500Z,98.85
2017-07-29T01:50:06.420Z,98.37
2017-07-29T01:50:19.922Z,98.57
2017-07-29T01:50:33.487Z,98.37
2017-07-29T01:50:46.965Z,98.37
2017-07-29T01:50:59.868Z,98.37
2017-07-29T01:51:13.306Z,98.37
2017-07-29T01:51:26.782Z,98.37
2017-07-29T01:51:40.215Z,98.37
2017-07-29T01:51:53.718Z,98.47
2017-07-29T01:52:07.176Z,98.28
2017-07-29T01:52:20.632Z,98.47
2017-07-29T01:52:34.054Z,98.47
2017-07-29T01:52:47.535Z,98.47
2017-07-29T01:53:00.986Z,98.47
2017-07-29T01:53:14.437Z,98.28
2017-07-29T01:53:27.871Z,98.08
2017-07-29T01:53:40.783Z,98.18
2017-07-29T01:53:53.249Z,98.18
2017-07-29T01:54:06.752Z,98.18
2017-07-29T01:54:19.737Z,98.37
2017-07-29T01:54:33.242Z,98.37
2017-07-29T01:54:46.652Z,98.37
2017-07-29T01:54:59.595Z,97.8
2017-07-29T01:55:12.503Z,97.8
2017-07-29T01:55:25.993Z,97.99
2017-07-29T01:55:39.405Z,97.99
2017-07-29T01:55:52.388Z,98.08
2017-07-29T01:56:05.793Z,98.08
2017-07-29T01:56:18.924Z,97.8
2017-07-29T01:56:32.413Z,98.08
2017-07-29T01:56:45.813Z,98.28
2017-07-29T01:56:59.306Z,97.42
2017-07-29T01:57:12.770Z,97.52
2017-07-29T01:57:26.189Z,97.61
2017-07-29T01:57:39.590Z,97.8
2017-07-29T01:57:52.566Z,97.8
2017-07-29T01:58:06.019Z,97.71
2017-07-29T01:58:18.955Z,97.32
2017-07-29T01:58:32.366Z,97.42
2017-07-29T01:58:45.284Z,97.23
2017-07-29T01:58:58.750Z,97.23
2017-07-29T01:59:12.210Z,97.03
2017-07-29T01:59:25.629Z,97.42
2017-07-29T01:59:37.976Z,97.23
2017-07-29T01:59:51.405Z,97.32
2017-07-29T02:00:04.355Z,97.61
2017-07-29T02:00:16.719Z,97.32
2017-07-29T02:00:31.629Z,97.23
2017-07-29T02:00:45.088Z,97.23
2017-07-29T02:00:58.607Z,97.32
2017-07-29T02:01:12.077Z,97.52
2017-07-29T02:01:26.195Z,97.52
2017-07-29T02:01:39.578Z,97.52
2017-07-29T02:01:53.005Z,97.32
2017-07-29T02:02:05.949Z,96.94
2017-07-29T02:02:19.365Z,97.71
2017-07-29T02:02:32.847Z,97.32
2017-07-29T02:02:46.481Z,97.32
2017-07-29T02:02:59.908Z,97.52
2017-07-29T02:03:12.805Z,97.32
2017-07-29T02:03:26.304Z,97.32
2017-07-29T02:03:39.773Z,97.52
2017-07-29T02:03:52.699Z,96.94
2017-07-29T02:04:06.172Z,96.94
2017-07-29T02:04:19.127Z,97.32
2017-07-29T02:04:31.541Z,97.23
2017-07-29T02:04:44.947Z,97.23
2017-07-29T02:04:58.378Z,97.03
2017-07-29T02:05:11.857Z,96.66
2017-07-29T02:05:25.275Z,96.75
2017-07-29T02:05:38.724Z,96.56
2017-07-29T02:05:51.634Z,96.66
2017-07-29T02:06:05.119Z,96.66
2017-07-29T02:06:18.150Z,96.94
2017-07-29T02:06:31.604Z,96.94
2017-07-29T02:06:45.038Z,96.66
2017-07-29T02:06:58.552Z,96.94
2017-07-29T02:07:11.988Z,96.84
2017-07-29T02:07:24.904Z,96.84
2017-07-29T02:07:38.365Z,96.56
2017-07-29T02:07:51.284Z,96.75
2017-07-29T02:08:04.723Z,96.75
2017-07-29T02:08:18.212Z,96.66
2017-07-29T02:08:31.084Z,96.66
2017-07-29T02:08:43.958Z,96.66
2017-07-29T02:08:56.858Z,96.66
2017-07-29T02:09:10.253Z,96.75
2017-07-29T02:09:23.713Z,96.66
2017-07-29T02:09:36.109Z,96.66
2017-07-29T02:09:49.590Z,96.94
2017-07-29T02:10:02.987Z,96.75
2017-07-29T02:10:15.961Z,96.17
2017-07-29T02:10:28.978Z,96.46
2017-07-29T02:10:42.486Z,95.7
2017-07-29T02:10:55.456Z,95.79
2017-07-29T02:11:08.866Z,95.98
2017-07-29T02:11:22.304Z,95.79
2017-07-29T02:11:35.236Z,95.7
2017-07-29T02:11:48.698Z,95.61
2017-07-29T02:12:02.160Z,95.79
2017-07-29T02:12:15.090Z,95.7
2017-07-29T02:12:28.509Z,95.7
2017-07-29T02:12:41.924Z,95.7
2017-07-29T02:12:55.355Z,95.7
2017-07-29T02:13:08.261Z,95.61
2017-07-29T02:13:21.159Z,95.51
2017-07-29T02:13:34.626Z,95.7
2017-07-29T02:13:48.099Z,95.51
2017-07-29T02:14:01.593Z,95.7
2017-07-29T02:14:15.049Z,95.51
2017-07-29T02:14:28.497Z,95.7
2017-07-29T02:14:41.973Z,95.7
2017-07-29T02:14:55.442Z,95.89
2017-07-29T02:15:08.881Z,95.89
2017-07-29T02:15:21.786Z,96.08
2017-07-29T02:15:34.699Z,95.89
2017-07-29T02:15:48.099Z,95.89
2017-07-29T02:16:01.608Z,95.98
2017-07-29T02:16:15.085Z,95.79
2017-07-29T02:16:29.286Z,95.79
2017-07-29T02:16:42.716Z,95.89
2017-07-29T02:16:56.163Z,95.79
2017-07-29T02:17:09.060Z,95.7
2017-07-29T02:17:22.475Z,96.17
2017-07-29T02:17:35.394Z,96.27
2017-07-29T02:17:48.912Z,96.08
2017-07-29T02:18:02.370Z,96.27
2017-07-29T02:18:15.830Z,95.89
2017-07-29T02:18:29.220Z,96.46
2017-07-29T02:18:42.101Z,96.37
2017-07-29T02:18:55.542Z,96.17
2017-07-29T02:19:09.071Z,96.08
2017-07-29T02:19:22.055Z,96.37
2017-07-29T02:19:35.469Z,96.46
2017-07-29T02:19:48.969Z,96.27
2017-07-29T02:20:02.418Z,96.27
2017-07-29T02:20:15.340Z,96.17
2017-07-29T02:20:28.780Z,96.27
2017-07-29T02:20:41.668Z,96.27
2017-07-29T02:20:55.132Z,96.17
2017-07-29T02:21:08.575Z,96.37
2017-07-29T02:21:21.476Z,96.17
2017-07-29T02:21:34.366Z,96.17
2017-07-29T02:21:47.324Z,95.98
2017-07-29T02:22:00.267Z,96.27
2017-07-29T02:22:12.652Z,96.27
2017-07-29T02:22:25.631Z,96.56
2017-07-29T02:22:39.115Z,95.98
2017-07-29T02:22:52.563Z,96.46
2017-07-29T02:23:06.043Z,96.37
2017-07-29T02:23:19.498Z,96.46
2017-07-29T02:23:32.942Z,96.27
2017-07-29T02:23:46.331Z,96.17
2017-07-29T02:23:59.208Z,96.17
2017-07-29T02:24:12.674Z,96.46
2017-07-29T02:24:25.587Z,96.08
2017-07-29T02:24:39.105Z,96.17
2017-07-29T02:24:52.556Z,95.98
2017-07-29T02:25:05.933Z,96.46
2017-07-29T02:25:19.389Z,96.46
2017-07-29T02:25:32.920Z,96.27
2017-07-29T02:25:46.440Z,96.37
2017-07-29T02:25:59.890Z,96.46
2017-07-29T02:26:12.814Z,96.37
2017-07-29T02:26:26.326Z,95.89
2017-07-29T02:26:39.792Z,95.89
2017-07-29T02:26:53.293Z,96.46
2017-07-29T02:27:06.241Z,96.37
2017-07-29T02:27:19.661Z,96.17
2017-07-29T02:27:33.031Z,96.46
2017-07-29T02:27:46.515Z,96.37
2017-07-29T02:27:59.396Z,96.37
2017-07-29T02:28:12.851Z,96.27
2017-07-29T02:28:26.370Z,96.27
2017-07-29T02:28:39.835Z,95.89
2017-07-29T02:28:52.755Z,96.27
2017-07-29T02:29:06.221Z,95.89
2017-07-29T02:29:19.655Z,95.79
2017-07-29T02:29:32.639Z,95.7
2017-07-29T02:29:46.086Z,95.7
2017-07-29T02:29:59.047Z,95.89
2017-07-29T02:30:12.427Z,96.17
2017-07-29T02:30:25.971Z,96.08
2017-07-29T02:30:39.491Z,96.08
2017-07-29T02:30:53.020Z,95.89
2017-07-29T02:31:06.436Z,95.61
2017-07-29T02:31:19.908Z,95.61
2017-07-29T02:31:33.947Z,95.7
2017-07-29T02:31:46.879Z,95.51
2017-07-29T02:32:00.397Z,95.61
2017-07-29T02:32:13.286Z,95.61
2017-07-29T02:32:26.759Z,95.7
2017-07-29T02:32:40.182Z,95.7
2017-07-29T02:32:53.582Z,95.7
2017-07-29T02:33:06.591Z,95.89
2017-07-29T02:33:20.075Z,95.7
2017-07-29T02:33:33.588Z,95.51
2017-07-29T02:33:47.082Z,95.89
2017-07-29T02:33:59.971Z,95.32
2017-07-29T02:34:13.415Z,95.51
2017-07-29T02:34:26.892Z,95.51
2017-07-29T02:34:40.349Z,95.61
2017-07-29T02:34:53.822Z,95.7
2017-07-29T02:35:07.283Z,95.22
2017-07-29T02:35:20.729Z,95.32
2017-07-29T02:35:34.193Z,95.51
2017-07-29T02:35:47.671Z,95.32
2017-07-29T02:36:01.104Z,95.22
2017-07-29T02:36:14.765Z,94.65
2017-07-29T02:36:28.241Z,94.46
2017-07-29T02:36:41.199Z,94.65
2017-07-29T02:36:54.584Z,94.65
2017-07-29T02:37:08.063Z,94.74
2017-07-29T02:37:20.931Z,94.74
2017-07-29T02:37:34.344Z,95.03
2017-07-29T02:37:47.818Z,95.22
2017-07-29T02:38:01.280Z,95.03
2017-07-29T02:38:14.714Z,95.12
2017-07-29T02:38:27.605Z,95.03
2017-07-29T02:38:40.570Z,94.84
2017-07-29T02:38:53.477Z,95.41
2017-07-29T02:39:06.429Z,95.41
2017-07-29T02:39:19.400Z,95.22
2017-07-29T02:39:32.328Z,95.32
2017-07-29T02:39:45.836Z,95.32
2017-07-29T02:39:59.303Z,95.32
2017-07-29T02:40:12.236Z,95.41
2017-07-29T02:40:25.662Z,95.89
2017-07-29T02:40:39.176Z,96.08
2017-07-29T02:40:52.647Z,96.08
2017-07-29T02:41:06.009Z,95.98
2017-07-29T02:41:19.414Z,95.89
2017-07-29T02:41:32.896Z,95.89
2017-07-29T02:41:46.367Z,95.79
2017-07-29T02:41:59.256Z,95.89
2017-07-29T02:42:12.187Z,96.08
2017-07-29T02:42:25.648Z,95.98
2017-07-29T02:42:39.112Z,95.89
2017-07-29T02:42:52.635Z,95.7
2017-07-29T02:43:06.080Z,95.89
2017-07-29T02:43:19.008Z,95.7
2017-07-29T02:43:32.475Z,95.89
2017-07-29T02:43:45.921Z,95.89
2017-07-29T02:43:59.340Z,95.94
2017-07-29T02:44:11.705Z,95.98
2017-07-29T02:44:25.132Z,95.84
2017-07-29T02:44:38.042Z,95.84
2017-07-29T02:44:51.468Z,95.94
2017-07-29T02:45:04.876Z,95.84
2017-07-29T02:45:18.419Z,95.84
2017-07-29T02:45:32.765Z,95.46
2017-07-29T02:45:46.276Z,95.46
2017-07-29T02:45:59.242Z,95.46
2017-07-29T02:46:12.746Z,95.75
2017-07-29T02:46:26.202Z,95.65
2017-07-29T02:46:40.419Z,95.46
2017-07-29T02:46:53.873Z,95.65
2017-07-29T02:47:07.270Z,95.65
2017-07-29T02:47:20.655Z,95.75
2017-07-29T02:47:34.074Z,95.84
2017-07-29T02:47:46.506Z,95.84
2017-07-29T02:47:59.419Z,95.84
2017-07-29T02:48:11.808Z,95.75
2017-07-29T02:48:25.290Z,96.03
2017-07-29T02:48:38.759Z,95.94
2017-07-29T02:48:52.207Z,95.65
2017-07-29T02:49:05.717Z,95.27
2017-07-29T02:49:19.163Z,95.56
2017-07-29T02:49:32.682Z,95.56
2017-07-29T02:49:46.092Z,95.27
2017-07-29T02:49:58.969Z,95.7
2017-07-29T02:50:11.872Z,95.84
2017-07-29T02:50:25.387Z,95.56
2017-07-29T02:50:38.781Z,95.56
2017-07-29T02:50:52.216Z,95.61
2017-07-29T02:51:05.699Z,95.51
2017-07-29T02:51:19.169Z,95.32